createdAt,value
2018-06-22T00:00:50.965Z,2.00
2018-06-22T00:03:19.044Z,1.73
2018-06-22T00:05:47.153Z,1.80
2018-06-22T00:08:15.227Z,1.73
2018-06-22T00:10:43.325Z,1.80
2018-06-22T00:13:11.404Z,1.47
2018-06-22T00:15:39.495Z,1.70
2018-06-22T00:18:07.572Z,1.67
2018-06-22T00:20:35.669Z,1.50
2018-06-22T00:23:03.752Z,1.70
2018-06-22T00:25:31.832Z,1.70
2018-06-22T00:27:59.924Z,1.80
2018-06-22T00:30:28.009Z,2.27
2018-06-22T00:32:56.101Z,1.40
2018-06-22T00:35:24.175Z,2.40
2018-06-22T00:37:52.300Z,1.90
2018-06-22T00:40:20.393Z,3.23
2018-06-22T00:42:48.577Z,1.63
2018-06-22T00:45:16.773Z,2.27
2018-06-22T00:47:44.868Z,1.90
2018-06-22T00:50:12.945Z,1.77
2018-06-22T00:52:41.033Z,1.57
2018-06-22T00:55:09.133Z,1.67
2018-06-22T00:57:37.217Z,1.63
2018-06-22T01:00:05.497Z,1.47
2018-06-22T01:02:33.592Z,2.23
2018-06-22T01:05:01.664Z,2.03
2018-06-22T01:07:29.974Z,1.50
2018-06-22T01:09:58.044Z,1.80
2018-06-22T01:12:26.124Z,1.57
2018-06-22T01:14:54.213Z,1.97
2018-06-22T01:17:22.310Z,2.03
2018-06-22T01:19:50.385Z,2.27
2018-06-22T01:22:18.766Z,1.67
2018-06-22T01:24:46.794Z,2.47
2018-06-22T01:27:14.919Z,1.83
2018-06-22T01:29:43.032Z,1.87
2018-06-22T01:32:11.120Z,1.60
2018-06-22T01:34:39.196Z,1.60
2018-06-22T01:37:07.284Z,1.97
2018-06-22T01:39:35.392Z,2.20
2018-06-22T01:42:03.484Z,2.20
2018-06-22T01:44:31.559Z,1.80
2018-06-22T01:46:59.730Z,1.83
2018-06-22T01:49:27.804Z,2.10
2018-06-22T01:51:55.876Z,2.33
2018-06-22T01:54:23.940Z,3.27
2018-06-22T01:56:52.054Z,2.00
2018-06-22T01:59:20.128Z,1.70
2018-06-22T02:01:48.216Z,1.67
2018-06-22T02:04:16.292Z,2.00
2018-06-22T02:06:44.387Z,2.30
2018-06-22T02:09:13.377Z,1.73
2018-06-22T02:11:41.747Z,2.10
2018-06-22T02:14:09.860Z,2.20
2018-06-22T02:16:38.272Z,2.23
2018-06-22T02:19:06.360Z,2.30
2018-06-22T02:21:34.435Z,2.10
2018-06-22T02:24:02.525Z,2.30
2018-06-22T02:26:30.603Z,2.13
2018-06-22T02:28:58.715Z,2.00
2018-06-22T02:31:26.808Z,2.87
2018-06-22T02:33:55.428Z,2.10
2018-06-22T02:36:23.524Z,2.33
2018-06-22T02:38:51.864Z,2.37
2018-06-22T02:41:19.960Z,2.40
2018-06-22T02:43:48.076Z,2.57
2018-06-22T02:46:16.165Z,2.60
2018-06-22T02:48:44.260Z,2.20
2018-06-22T02:51:12.344Z,2.33
2018-06-22T02:53:40.492Z,2.50
2018-06-22T02:56:08.584Z,2.27
2018-06-22T02:58:36.689Z,2.40
2018-06-22T03:01:04.776Z,2.47
2018-06-22T03:03:32.869Z,2.47
2018-06-22T03:06:00.945Z,2.37
2018-06-22T03:08:29.038Z,2.00
2018-06-22T03:10:57.165Z,2.50
2018-06-22T03:13:25.270Z,2.50
2018-06-22T03:15:53.349Z,2.60
2018-06-22T03:18:21.436Z,2.60
2018-06-22T03:20:49.519Z,2.37
2018-06-22T03:23:17.642Z,2.40
2018-06-22T03:25:45.717Z,2.40
2018-06-22T03:28:13.848Z,2.90
2018-06-22T03:30:43.101Z,3.17
2018-06-22T03:33:11.231Z,2.30
2018-06-22T03:35:39.299Z,2.43
2018-06-22T03:38:07.416Z,2.60
2018-06-22T03:40:35.517Z,2.50
2018-06-22T03:43:03.608Z,3.40
2018-06-22T03:45:31.689Z,2.20
2018-06-22T03:47:59.775Z,2.30
2018-06-22T03:50:27.848Z,2.57
2018-06-22T03:52:55.952Z,2.13
2018-06-22T03:55:24.047Z,2.87
2018-06-22T03:57:52.176Z,2.47
2018-06-22T04:00:20.259Z,2.40
2018-06-22T04:02:48.348Z,2.30
2018-06-22T04:05:16.432Z,2.53
2018-06-22T04:07:44.496Z,2.37
2018-06-22T04:10:12.593Z,2.33
2018-06-22T04:12:40.712Z,2.20
2018-06-22T04:15:08.811Z,2.10
2018-06-22T04:17:41.192Z,2.17
2018-06-22T04:20:09.280Z,2.10
2018-06-22T04:22:37.355Z,3.07
2018-06-22T04:25:05.449Z,2.40
2018-06-22T04:27:33.511Z,2.30
2018-06-22T04:30:01.609Z,2.20
2018-06-22T04:32:29.704Z,2.43
2018-06-22T04:34:57.798Z,2.50
2018-06-22T04:37:25.883Z,2.00
2018-06-22T04:39:53.980Z,2.07
2018-06-22T04:42:22.066Z,2.03
2018-06-22T04:44:50.161Z,2.33
2018-06-22T04:47:18.517Z,2.20
2018-06-22T04:49:46.649Z,2.03
2018-06-22T04:52:14.724Z,2.30
2018-06-22T04:54:42.819Z,2.30
2018-06-22T04:57:11.024Z,2.37
2018-06-22T04:59:39.135Z,2.60
2018-06-22T05:02:07.219Z,2.10
2018-06-22T05:04:35.308Z,2.33
2018-06-22T05:07:03.375Z,1.90
2018-06-22T05:09:31.485Z,2.43
2018-06-22T05:11:59.559Z,2.70
2018-06-22T05:14:27.660Z,2.17
2018-06-22T05:16:55.731Z,2.30
2018-06-22T05:19:23.832Z,2.17
2018-06-22T05:21:51.904Z,2.57
2018-06-22T05:24:19.996Z,2.27
2018-06-22T05:26:48.081Z,1.87
2018-06-22T05:29:16.180Z,2.50
2018-06-22T05:31:44.252Z,2.20
2018-06-22T05:34:12.441Z,2.40
2018-06-22T05:36:40.608Z,2.40
2018-06-22T05:39:09.989Z,2.83
2018-06-22T05:41:38.352Z,2.40
2018-06-22T05:44:06.452Z,2.33
2018-06-22T05:46:34.552Z,2.03
2018-06-22T05:49:02.776Z,2.20
2018-06-22T05:51:30.859Z,2.40
2018-06-22T05:53:58.936Z,2.13
2018-06-22T05:56:27.047Z,2.17
2018-06-22T05:58:55.146Z,2.03
2018-06-22T06:01:23.283Z,2.13
2018-06-22T06:03:51.362Z,1.87
2018-06-22T06:06:19.472Z,2.23
2018-06-22T06:08:47.552Z,2.13
2018-06-22T06:11:15.657Z,2.33
2018-06-22T06:13:43.732Z,3.07
2018-06-22T06:16:11.822Z,2.40
2018-06-22T06:18:39.903Z,1.70
2018-06-22T06:21:07.993Z,2.00
2018-06-22T06:23:36.063Z,2.33
2018-06-22T06:26:04.147Z,2.73
2018-06-22T06:28:32.219Z,1.90
2018-06-22T06:31:00.303Z,2.03
2018-06-22T06:33:28.380Z,2.40
2018-06-22T06:35:56.479Z,2.33
2018-06-22T06:38:24.612Z,2.27
2018-06-22T06:40:52.731Z,2.60
2018-06-22T06:43:20.821Z,2.23
2018-06-22T06:45:49.037Z,2.27
2018-06-22T06:48:17.135Z,1.97
2018-06-22T06:50:45.236Z,2.00
2018-06-22T06:53:13.324Z,2.27
2018-06-22T06:55:41.441Z,2.07
2018-06-22T06:58:09.526Z,2.20
2018-06-22T07:00:37.619Z,2.30
2018-06-22T07:03:05.724Z,2.20
2018-06-22T07:05:33.822Z,2.20
2018-06-22T07:08:01.912Z,1.93
2018-06-22T07:10:30.029Z,2.30
2018-06-22T07:12:58.116Z,2.20
2018-06-22T07:15:26.208Z,1.70
2018-06-22T07:17:54.292Z,2.13
2018-06-22T07:20:22.383Z,1.90
2018-06-22T07:22:50.495Z,2.00
2018-06-22T07:25:18.596Z,3.07
2018-06-22T07:27:46.677Z,1.90
2018-06-22T07:30:14.768Z,2.20
2018-06-22T07:32:42.858Z,2.10
2018-06-22T07:35:10.960Z,2.47
2018-06-22T07:37:39.061Z,2.20
2018-06-22T07:40:07.612Z,2.57
2018-06-22T07:42:35.708Z,1.83
2018-06-22T07:45:03.821Z,2.60
2018-06-22T07:47:31.916Z,2.30
2018-06-22T07:49:59.983Z,2.27
2018-06-22T07:52:28.083Z,2.23
2018-06-22T07:54:56.192Z,1.80
2018-06-22T07:57:24.294Z,2.67
2018-06-22T07:59:52.384Z,2.40
2018-06-22T08:02:20.480Z,1.97
2018-06-22T08:04:48.563Z,3.57
2018-06-22T08:07:16.659Z,2.40
2018-06-22T08:09:44.995Z,2.27
2018-06-22T08:12:13.088Z,2.00
2018-06-22T08:14:41.168Z,1.73
2018-06-22T08:17:09.269Z,2.30
2018-06-22T08:19:37.347Z,2.20
2018-06-22T08:22:05.565Z,2.40
2018-06-22T08:24:33.665Z,1.77
2018-06-22T08:27:02.014Z,2.40
2018-06-22T08:29:30.124Z,3.00
2018-06-22T08:31:58.224Z,2.10
2018-06-22T08:34:26.312Z,2.53
2018-06-22T08:36:54.709Z,2.37
2018-06-22T08:39:22.785Z,2.67
2018-06-22T08:41:51.080Z,3.00
2018-06-22T08:44:19.015Z,2.67
2018-06-22T08:46:47.129Z,2.87
2018-06-22T08:49:15.241Z,2.47
2018-06-22T08:51:43.382Z,2.60
2018-06-22T08:54:11.489Z,2.27
2018-06-22T08:56:39.612Z,2.97
2018-06-22T08:59:07.697Z,2.30
2018-06-22T09:01:35.785Z,2.00
2018-06-22T09:04:03.891Z,2.80
2018-06-22T09:06:31.980Z,2.67
2018-06-22T09:09:00.068Z,2.37
2018-06-22T09:11:28.165Z,2.70
2018-06-22T09:13:56.256Z,2.40
2018-06-22T09:16:24.353Z,3.00
2018-06-22T09:18:52.429Z,2.87
2018-06-22T09:21:20.511Z,3.30
2018-06-22T09:23:48.604Z,2.33
2018-06-22T09:26:16.688Z,2.93
2018-06-22T09:28:44.788Z,2.60
2018-06-22T09:31:12.874Z,2.03
2018-06-22T09:33:40.964Z,2.30
2018-06-22T09:36:09.040Z,2.50
2018-06-22T09:38:37.132Z,2.63
2018-06-22T09:41:05.224Z,2.37
2018-06-22T09:43:33.544Z,2.57
2018-06-22T09:46:01.620Z,2.50
2018-06-22T09:48:29.765Z,2.33
2018-06-22T09:50:57.799Z,2.80
2018-06-22T09:53:25.900Z,2.77
2018-06-22T09:55:54.003Z,3.03
2018-06-22T09:58:22.387Z,3.03
2018-06-22T10:00:50.464Z,3.20
2018-06-22T10:03:19.348Z,3.27
2018-06-22T10:05:47.422Z,3.00
2018-06-22T10:08:15.603Z,2.63
2018-06-22T10:10:43.657Z,2.60
2018-06-22T10:13:12.017Z,2.70
2018-06-22T10:15:40.125Z,3.70
2018-06-22T10:18:08.217Z,3.27
2018-06-22T10:20:36.293Z,3.57
2018-06-22T10:23:04.404Z,3.57
2018-06-22T10:25:32.480Z,3.07
2018-06-22T10:28:00.577Z,2.60
2018-06-22T10:30:28.668Z,3.80
2018-06-22T10:32:56.755Z,3.47
2018-06-22T10:35:25.177Z,3.77
2018-06-22T10:37:53.683Z,3.00
2018-06-22T10:40:21.764Z,3.43
2018-06-22T10:42:49.856Z,3.10
2018-06-22T10:45:17.960Z,3.20
2018-06-22T10:47:46.092Z,2.80
2018-06-22T10:50:14.227Z,2.90
2018-06-22T10:52:42.375Z,2.93
2018-06-22T10:55:10.721Z,2.73
2018-06-22T10:57:38.844Z,3.60
2018-06-22T11:00:07.104Z,2.57
2018-06-22T11:02:35.225Z,3.07
2018-06-22T11:05:03.317Z,3.67
2018-06-22T11:07:31.440Z,2.57
2018-06-22T11:09:59.731Z,3.17
2018-06-22T11:12:28.101Z,2.30
2018-06-22T11:14:56.423Z,2.70
2018-06-22T11:17:24.504Z,2.30
2018-06-22T11:19:52.601Z,2.40
2018-06-22T11:22:20.891Z,2.07
2018-06-22T11:24:49.054Z,2.57
2018-06-22T11:27:17.136Z,2.70
2018-06-22T11:29:45.252Z,2.30
2018-06-22T11:32:13.383Z,2.33
2018-06-22T11:34:41.431Z,2.50
2018-06-22T11:37:09.528Z,2.20
2018-06-22T11:39:37.649Z,2.60
2018-06-22T11:42:05.736Z,2.10
2018-06-22T11:44:33.827Z,2.93
2018-06-22T11:47:01.909Z,2.80
2018-06-22T11:49:30.018Z,2.83
2018-06-22T11:51:58.097Z,3.10
2018-06-22T11:54:26.183Z,2.40
2018-06-22T11:56:54.276Z,2.37
2018-06-22T11:59:22.384Z,2.47
2018-06-22T12:01:50.497Z,2.87
2018-06-22T12:04:18.596Z,2.10
2018-06-22T12:06:46.703Z,2.60
2018-06-22T12:09:15.080Z,3.23
2018-06-22T12:11:43.181Z,2.60
2018-06-22T12:14:11.472Z,2.83
2018-06-22T12:16:39.568Z,2.60
2018-06-22T12:19:07.717Z,2.60
2018-06-22T12:21:35.772Z,2.50
2018-06-22T12:24:03.870Z,2.80
2018-06-22T12:26:31.964Z,3.00
2018-06-22T12:29:00.481Z,2.70
2018-06-22T12:31:28.565Z,2.03
2018-06-22T12:33:56.662Z,2.33
2018-06-22T12:36:24.737Z,2.77
2018-06-22T12:38:52.840Z,2.67
2018-06-22T12:41:20.937Z,3.10
2018-06-22T12:43:49.053Z,2.57
2018-06-22T12:46:17.132Z,3.10
2018-06-22T12:48:45.255Z,2.50
2018-06-22T12:51:13.336Z,2.83
2018-06-22T12:53:41.411Z,2.30
2018-06-22T12:56:09.524Z,2.53
2018-06-22T12:58:37.822Z,2.43
2018-06-22T13:01:05.945Z,2.30
2018-06-22T13:03:34.020Z,2.70
2018-06-22T13:06:02.144Z,2.10
2018-06-22T13:08:30.224Z,2.20
2018-06-22T13:10:58.309Z,2.00
2018-06-22T13:13:26.384Z,1.93
2018-06-22T13:15:54.481Z,2.00
2018-06-22T13:18:22.924Z,1.90
2018-06-22T13:20:51.033Z,1.40
2018-06-22T13:23:19.116Z,1.63
2018-06-22T13:25:48.155Z,1.70
2018-06-22T13:28:16.240Z,1.93
2018-06-22T13:30:44.343Z,1.30
2018-06-22T13:33:12.444Z,1.20
2018-06-22T13:35:40.532Z,1.60
2018-06-22T13:38:08.619Z,1.70
2018-06-22T13:40:36.727Z,1.30
2018-06-22T13:43:04.855Z,1.37
2018-06-22T13:45:32.948Z,1.23
2018-06-22T13:48:01.020Z,1.40
2018-06-22T13:50:29.125Z,1.23
2018-06-22T13:52:57.211Z,1.20
2018-06-22T13:55:25.333Z,1.20
2018-06-22T13:57:53.415Z,1.20
2018-06-22T14:00:21.532Z,1.37
2018-06-22T14:02:49.613Z,1.20
2018-06-22T14:05:23.276Z,1.03
2018-06-22T14:07:51.360Z,1.20
2018-06-22T14:10:19.461Z,1.10
2018-06-22T14:12:47.580Z,1.87
2018-06-22T14:15:15.675Z,0.93
2018-06-22T14:17:43.764Z,1.40
2018-06-22T14:20:11.922Z,1.20
2018-06-22T14:22:39.973Z,1.00
2018-06-22T14:25:08.076Z,1.57
2018-06-22T14:27:36.159Z,1.13
2018-06-22T14:30:04.640Z,1.20
2018-06-22T14:32:32.720Z,0.87
2018-06-22T14:35:00.846Z,1.37
2018-06-22T14:37:28.920Z,1.20
2018-06-22T14:39:56.993Z,1.40
2018-06-22T14:42:25.084Z,1.50
2018-06-22T14:44:53.159Z,1.47
2018-06-22T14:47:21.255Z,1.00
2018-06-22T14:49:49.432Z,1.50
2018-06-22T14:52:17.527Z,1.20
2018-06-22T14:54:51.046Z,1.20
2018-06-22T14:57:24.725Z,1.60
2018-06-22T14:59:58.191Z,1.17
2018-06-22T15:02:31.697Z,1.30
2018-06-22T15:05:05.177Z,1.30
2018-06-22T15:07:38.712Z,1.70
2018-06-22T15:10:06.786Z,1.70
2018-06-22T15:12:34.884Z,1.80
2018-06-22T15:15:03.001Z,1.30
2018-06-22T15:17:35.406Z,1.33
2018-06-22T15:20:03.496Z,1.50
2018-06-22T15:22:31.584Z,1.40
2018-06-22T15:24:59.658Z,1.50
2018-06-22T15:27:27.752Z,1.40
2018-06-22T15:29:55.832Z,1.13
2018-06-22T15:32:23.940Z,1.50
2018-06-22T15:34:57.380Z,1.30
2018-06-22T15:37:30.933Z,1.17
2018-06-22T15:40:04.509Z,1.10
2018-06-22T15:42:38.116Z,1.50
2018-06-22T15:45:11.669Z,1.83
2018-06-22T15:47:45.315Z,1.50
2018-06-22T15:50:18.928Z,1.30
2018-06-22T15:52:52.391Z,1.40
2018-06-22T15:55:22.456Z,1.43
2018-06-22T15:57:50.629Z,1.73
2018-06-22T16:00:18.716Z,1.90
2018-06-22T16:02:52.415Z,1.23
2018-06-22T16:05:20.496Z,1.27
2018-06-22T16:07:48.587Z,1.03
2018-06-22T16:10:16.676Z,1.80
2018-06-22T16:12:44.774Z,1.80
2018-06-22T16:15:18.640Z,1.50
2018-06-22T16:17:52.469Z,1.70
2018-06-22T16:20:26.048Z,1.07
2018-06-22T16:22:59.572Z,1.43
2018-06-22T16:25:33.171Z,1.57
2018-06-22T16:28:02.483Z,1.40
2018-06-22T16:30:30.778Z,1.80
2018-06-22T16:32:58.840Z,1.40
2018-06-22T16:35:27.059Z,1.30
2018-06-22T16:37:55.489Z,1.30
2018-06-22T16:40:23.575Z,1.27
2018-06-22T16:42:51.717Z,1.23
2018-06-22T16:45:19.811Z,1.40
2018-06-22T16:47:47.996Z,1.60
2018-06-22T16:50:16.085Z,1.50
2018-06-22T16:52:44.185Z,1.50
2018-06-22T16:55:12.795Z,1.40
2018-06-22T16:57:41.117Z,1.37
2018-06-22T17:00:09.853Z,1.47
2018-06-22T17:02:37.976Z,1.47
2018-06-22T17:05:06.404Z,1.50
2018-06-22T17:07:39.933Z,1.40
2018-06-22T17:10:13.369Z,1.30
2018-06-22T17:12:46.760Z,1.00
2018-06-22T17:15:20.156Z,1.30
2018-06-22T17:17:53.597Z,1.17
2018-06-22T17:20:21.659Z,1.17
2018-06-22T17:22:49.759Z,1.30
2018-06-22T17:25:17.864Z,1.33
2018-06-22T17:27:45.976Z,1.47
2018-06-22T17:30:14.084Z,1.57
2018-06-22T17:32:42.201Z,1.37
2018-06-22T17:35:10.363Z,1.80
2018-06-22T17:37:38.445Z,1.13
2018-06-22T17:40:06.581Z,1.40
2018-06-22T17:42:34.709Z,1.67
2018-06-22T17:45:02.860Z,1.60
2018-06-22T17:47:30.952Z,1.30
2018-06-22T17:50:04.533Z,1.50
2018-06-22T17:52:32.628Z,2.03
2018-06-22T17:55:00.739Z,1.43
2018-06-22T17:57:28.823Z,1.53
2018-06-22T18:00:02.528Z,1.93
2018-06-22T18:02:36.068Z,1.77
2018-06-22T18:05:09.624Z,1.37
2018-06-22T18:07:42.000Z,1.50
2018-06-22T18:10:15.568Z,1.60
2018-06-22T18:12:49.401Z,1.47
2018-06-22T18:15:18.260Z,1.83
2018-06-22T18:17:46.832Z,1.50
2018-06-22T18:20:15.062Z,1.37
2018-06-22T18:22:43.400Z,1.73
2018-06-22T18:25:12.197Z,1.43
2018-06-22T18:27:40.297Z,1.77
2018-06-22T18:30:10.787Z,1.47
2018-06-22T18:32:38.875Z,1.70
2018-06-22T18:35:08.461Z,1.60
2018-06-22T18:37:36.561Z,1.50
2018-06-22T18:40:04.770Z,1.50
2018-06-22T18:42:32.837Z,1.40
2018-06-22T18:45:00.944Z,1.97
2018-06-22T18:47:29.109Z,1.80
2018-06-22T18:49:57.232Z,1.67
2018-06-22T18:52:30.893Z,1.60
2018-06-22T18:55:04.403Z,1.30
2018-06-22T18:57:37.976Z,1.50
2018-06-22T19:00:11.714Z,1.50
2018-06-22T19:02:45.183Z,1.70
2018-06-22T19:05:13.292Z,1.50
2018-06-22T19:07:41.368Z,1.17
2018-06-22T19:10:09.462Z,1.20
2018-06-22T19:12:37.527Z,2.17
2018-06-22T19:15:05.617Z,1.37
2018-06-22T19:17:33.692Z,1.73
2018-06-22T19:20:01.815Z,1.70
2018-06-22T19:22:29.900Z,1.60
2018-06-22T19:24:57.976Z,2.33
2018-06-22T19:27:26.072Z,1.70
2018-06-22T19:29:54.248Z,1.70
2018-06-22T19:32:22.365Z,1.90
2018-06-22T19:35:22.464Z,2.27
2018-06-22T19:37:50.561Z,2.33
2018-06-22T19:40:18.652Z,1.90
2018-06-22T19:42:46.888Z,2.23
2018-06-22T19:45:20.424Z,1.73
2018-06-22T19:47:54.082Z,1.80
2018-06-22T19:50:27.462Z,1.67
2018-06-22T19:53:00.864Z,1.90
2018-06-22T19:55:29.188Z,1.83
2018-06-22T19:57:57.255Z,1.73
2018-06-22T20:00:25.368Z,1.47
2018-06-22T20:02:53.459Z,1.90
2018-06-22T20:05:21.544Z,1.90
2018-06-22T20:07:49.639Z,1.50
2018-06-22T20:10:17.755Z,1.67
2018-06-22T20:12:45.855Z,1.80
2018-06-22T20:15:18.298Z,1.90
2018-06-22T20:17:46.632Z,2.07
2018-06-22T20:20:14.777Z,1.90
2018-06-22T20:22:42.943Z,2.10
2018-06-22T20:25:16.585Z,2.30
2018-06-22T20:27:45.437Z,1.97
2018-06-22T20:30:13.661Z,1.87
2018-06-22T20:32:41.799Z,2.23
2018-06-22T20:35:15.272Z,2.30
2018-06-22T20:37:48.932Z,1.83
2018-06-22T20:40:22.501Z,1.97
2018-06-22T20:42:58.160Z,2.00
2018-06-22T20:45:31.857Z,2.30
2018-06-22T20:48:05.469Z,1.97
2018-06-22T20:50:36.497Z,2.37
2018-06-22T20:53:05.055Z,1.90
2018-06-22T20:55:33.883Z,2.07
2018-06-22T20:58:02.052Z,2.07
2018-06-22T21:00:30.189Z,2.47
2018-06-22T21:02:58.602Z,1.97
2018-06-22T21:05:26.747Z,2.00
2018-06-22T21:07:54.920Z,2.20
2018-06-22T21:10:23.120Z,2.30
2018-06-22T21:12:51.284Z,2.47
2018-06-22T21:15:19.304Z,2.97
2018-06-22T21:17:47.400Z,2.33
2018-06-22T21:20:15.470Z,2.47
2018-06-22T21:22:43.609Z,3.50
2018-06-22T21:25:11.731Z,2.60
2018-06-22T21:27:45.376Z,2.63
2018-06-22T21:30:18.921Z,2.50
2018-06-22T21:32:52.351Z,2.60
2018-06-22T21:35:25.937Z,2.50
2018-06-22T21:37:59.468Z,2.27
2018-06-22T21:40:27.557Z,3.20
2018-06-22T21:42:55.736Z,2.53
2018-06-22T21:45:23.951Z,2.37
2018-06-22T21:47:52.073Z,2.70
2018-06-22T21:50:20.153Z,3.27
2018-06-22T21:52:48.235Z,3.13
2018-06-22T21:55:16.351Z,2.63
2018-06-22T21:57:44.440Z,2.60
2018-06-22T22:00:14.075Z,3.40
2018-06-22T22:02:42.189Z,2.80
2018-06-22T22:05:10.268Z,2.87
2018-06-22T22:07:38.475Z,2.73
2018-06-22T22:10:06.575Z,2.43
2018-06-22T22:12:34.648Z,3.10
2018-06-22T22:15:02.752Z,2.70
2018-06-22T22:17:30.827Z,3.03
2018-06-22T22:19:58.929Z,2.90
2018-06-22T22:22:27.028Z,2.77
2018-06-22T22:24:55.123Z,2.83
2018-06-22T22:27:23.220Z,3.20
2018-06-22T22:29:51.304Z,3.20
2018-06-22T22:32:19.390Z,2.87
2018-06-22T22:34:47.489Z,3.50
2018-06-22T22:37:15.596Z,3.47
2018-06-22T22:39:43.692Z,3.50
2018-06-22T22:42:11.852Z,3.63
2018-06-22T22:44:39.936Z,3.30
2018-06-22T22:47:08.016Z,3.27
2018-06-22T22:49:36.160Z,3.37
2018-06-22T22:52:04.311Z,3.67
2018-06-22T22:54:32.620Z,3.30
2018-06-22T22:57:00.736Z,3.07
2018-06-22T22:59:28.833Z,3.33
2018-06-22T23:01:56.943Z,3.10
2018-06-22T23:04:25.037Z,3.50
2018-06-22T23:06:53.127Z,3.53
2018-06-22T23:09:21.220Z,3.47
2018-06-22T23:11:49.292Z,3.27
2018-06-22T23:14:17.376Z,3.60
2018-06-22T23:16:45.465Z,3.23
2018-06-22T23:19:13.568Z,3.10
2018-06-22T23:21:41.669Z,3.13
2018-06-22T23:24:09.765Z,3.57
2018-06-22T23:26:37.848Z,3.00
2018-06-22T23:29:05.952Z,3.10
2018-06-22T23:31:34.032Z,3.50
2018-06-22T23:34:02.128Z,3.50
2018-06-22T23:36:30.233Z,3.40
2018-06-22T23:38:58.324Z,3.03
2018-06-22T23:41:26.395Z,3.30
2018-06-22T23:43:54.480Z,3.20
2018-06-22T23:46:22.582Z,2.83
2018-06-22T23:48:50.665Z,2.67
2018-06-22T23:51:18.736Z,3.33
2018-06-22T23:53:46.811Z,2.50
2018-06-22T23:56:14.916Z,2.70
2018-06-22T23:58:43.004Z,3.50
